Accueil
METAR-TAF:

METAR-TAF

Aéroports :

Koné, Nouvelle-Calédonie

Aérodrome de Koné

latitude: 21-03-12S, longitude: 164-50-18E, altitude: 7 m

METAR: absent

Heure: 00:55 (13:55 UTC)

Prévision

Le bulletin a été fait il y a 8 heures et 55 minutes, à 05:00 UTC
Prévision valable du 21 à 06 UTC au 22 à 06 UTC
Vent 10 kt de sud/sud-ouest
Visibilité 10 km ou plus
Quelques nuages à une hauteur de 4500 ft
Evoluant progressivement
du 21 à 06 UTC au 21 à 08 UTC
Vent 3 kt de direction variable
Evoluant progressivement
du 22 à 00 UTC au 22 à 03 UTC
Vent 14 kt de sud

TAF: NWWD 210500Z 2106/2206 20010KT 9999 FEW045 BECMG 2106/2108 VRB03KT BECMG 2200/2203 17014KT

Observations et prévisions météorologiques de plus de 4000 aéroports (messages METAR et TAF).

Les stations disponibles sont représentées par des disques jaunes et rouges sur la carte.

Passer la souris dessus pour voir le nom de la station.

Cliquer dessus pour voir les observations et prévisions météorologiques.

Pour changer de carte: cliquez sur les boutons verts avec une croix noire pour zoomer, sur le bouton vert avec un tiret pour effectuer un zoom arrière, ou sur les flèches vertes pour les cartes adjacentes.


METAR-TAF: